sensor_id;sensor_type;location;lat;lon;timestamp;temperature;humidity
13794;DHT22;31160;49.500;7.772;2022-11-20T00:00:30;3.90;99.90
13794;DHT22;31160;49.500;7.772;2022-11-20T00:02:56;3.90;99.90
13794;DHT22;31160;49.500;7.772;2022-11-20T00:05:23;4.00;99.90
13794;DHT22;31160;49.500;7.772;2022-11-20T00:07:49;3.90;99.90
13794;DHT22;31160;49.500;7.772;2022-11-20T00:10:16;3.80;99.90
13794;DHT22;31160;49.500;7.772;2022-11-20T00:12:43;3.80;99.90
13794;DHT22;31160;49.500;7.772;2022-11-20T00:15:10;3.90;99.90
13794;DHT22;31160;49.500;7.772;2022-11-20T00:17:36;4.00;99.90
13794;DHT22;31160;49.500;7.772;2022-11-20T00:20:04;4.10;99.90
13794;DHT22;31160;49.500;7.772;2022-11-20T00:22:31;4.10;99.90
13794;DHT22;31160;49.500;7.772;2022-11-20T00:24:57;4.20;99.90
13794;DHT22;31160;49.500;7.772;2022-11-20T00:27:24;4.20;99.90
13794;DHT22;31160;49.500;7.772;2022-11-20T00:29:51;4.30;99.90
13794;DHT22;31160;49.500;7.772;2022-11-20T00:32:17;4.30;99.90
13794;DHT22;31160;49.500;7.772;2022-11-20T00:34:44;4.40;99.90
13794;DHT22;31160;49.500;7.772;2022-11-20T00:37:11;4.20;99.90
13794;DHT22;31160;49.500;7.772;2022-11-20T00:39:37;4.30;99.90
13794;DHT22;31160;49.500;7.772;2022-11-20T00:42:04;4.30;99.90
13794;DHT22;31160;49.500;7.772;2022-11-20T00:44:31;4.30;99.90
13794;DHT22;31160;49.500;7.772;2022-11-20T00:46:58;4.30;99.90
13794;DHT22;31160;49.500;7.772;2022-11-20T00:49:24;4.20;99.90
13794;DHT22;31160;49.500;7.772;2022-11-20T00:51:51;4.00;99.90
13794;DHT22;31160;49.500;7.772;2022-11-20T00:54:18;4.00;99.90
13794;DHT22;31160;49.500;7.772;2022-11-20T00:56:44;4.00;99.90
13794;DHT22;31160;49.500;7.772;2022-11-20T00:59:11;4.10;99.90
13794;DHT22;31160;49.500;7.772;2022-11-20T01:01:38;4.10;99.90
13794;DHT22;31160;49.500;7.772;2022-11-20T01:04:05;4.10;99.90
13794;DHT22;31160;49.500;7.772;2022-11-20T01:06:34;4.10;99.90
13794;DHT22;31160;49.500;7.772;2022-11-20T01:09:06;4.20;99.90
13794;DHT22;31160;49.500;7.772;2022-11-20T01:11:37;4.20;99.90
13794;DHT22;31160;49.500;7.772;2022-11-20T01:14:05;4.00;99.90
13794;DHT22;31160;49.500;7.772;2022-11-20T01:16:35;4.00;99.90
13794;DHT22;31160;49.500;7.772;2022-11-20T01:19:05;4.10;99.90
13794;DHT22;31160;49.500;7.772;2022-11-20T01:21:37;4.10;99.90
13794;DHT22;31160;49.500;7.772;2022-11-20T01:24:06;4.20;99.90
13794;DHT22;31160;49.500;7.772;2022-11-20T01:26:38;4.20;99.90
13794;DHT22;31160;49.500;7.772;2022-11-20T01:29:06;4.30;99.90
13794;DHT22;31160;49.500;7.772;2022-11-20T01:31:37;4.30;99.90
13794;DHT22;31160;49.500;7.772;2022-11-20T01:34:06;4.30;99.90
13794;DHT22;31160;49.500;7.772;2022-11-20T01:36:34;4.30;99.90
13794;DHT22;31160;49.500;7.772;2022-11-20T01:39:05;4.30;99.90
13794;DHT22;31160;49.500;7.772;2022-11-20T01:41:33;4.30;99.90
13794;DHT22;31160;49.500;7.772;2022-11-20T01:44:21;4.40;99.90
13794;DHT22;31160;49.500;7.772;2022-11-20T01:46:56;4.40;99.90
13794;DHT22;31160;49.500;7.772;2022-11-20T01:49:34;4.40;99.90
13794;DHT22;31160;49.500;7.772;2022-11-20T01:52:07;4.40;99.90
13794;DHT22;31160;49.500;7.772;2022-11-20T01:54:39;4.50;99.90
13794;DHT22;31160;49.500;7.772;2022-11-20T01:57:08;4.50;99.90
13794;DHT22;31160;49.500;7.772;2022-11-20T01:59:39;4.50;99.90
13794;DHT22;31160;49.500;7.772;2022-11-20T02:02:08;4.40;99.90
13794;DHT22;31160;49.500;7.772;2022-11-20T02:04:35;4.40;99.90
13794;DHT22;31160;49.500;7.772;2022-11-20T02:07:04;4.40;99.90
13794;DHT22;31160;49.500;7.772;2022-11-20T02:09:31;4.40;99.90
13794;DHT22;31160;49.500;7.772;2022-11-20T02:11:59;4.20;99.90
13794;DHT22;31160;49.500;7.772;2022-11-20T02:14:26;4.10;99.90
13794;DHT22;31160;49.500;7.772;2022-11-20T02:16:54;4.00;99.90
13794;DHT22;31160;49.500;7.772;2022-11-20T02:19:29;4.00;99.90
13794;DHT22;31160;49.500;7.772;2022-11-20T02:24:23;4.00;99.90
13794;DHT22;31160;49.500;7.772;2022-11-20T02:27:11;4.00;99.90
13794;DHT22;31160;49.500;7.772;2022-11-20T02:29:43;4.10;99.90
13794;DHT22;31160;49.500;7.772;2022-11-20T02:32:32;4.20;99.90
13794;DHT22;31160;49.500;7.772;2022-11-20T02:37:47;4.30;99.90
13794;DHT22;31160;49.500;7.772;2022-11-20T02:40:14;4.30;99.90
13794;DHT22;31160;49.500;7.772;2022-11-20T02:42:41;4.40;99.90
13794;DHT22;31160;49.500;7.772;2022-11-20T02:45:08;4.40;99.90
13794;DHT22;31160;49.500;7.772;2022-11-20T02:47:35;4.40;99.90
13794;DHT22;31160;49.500;7.772;2022-11-20T02:50:03;4.30;99.90
13794;DHT22;31160;49.500;7.772;2022-11-20T02:52:30;4.30;99.90
13794;DHT22;31160;49.500;7.772;2022-11-20T02:54:57;4.30;99.90
13794;DHT22;31160;49.500;7.772;2022-11-20T02:57:23;4.30;99.90
13794;DHT22;31160;49.500;7.772;2022-11-20T02:59:50;4.30;99.90
13794;DHT22;31160;49.500;7.772;2022-11-20T03:02:17;4.40;99.90
13794;DHT22;31160;49.500;7.772;2022-11-20T03:04:43;4.40;99.90
13794;DHT22;31160;49.500;7.772;2022-11-20T03:07:10;4.50;99.90
13794;DHT22;31160;49.500;7.772;2022-11-20T03:09:37;4.50;99.90
13794;DHT22;31160;49.500;7.772;2022-11-20T03:12:04;4.50;99.90
13794;DHT22;31160;49.500;7.772;2022-11-20T03:14:31;4.60;99.90
13794;DHT22;31160;49.500;7.772;2022-11-20T03:16:58;4.80;99.90
13794;DHT22;31160;49.500;7.772;2022-11-20T03:19:25;4.70;99.90
13794;DHT22;31160;49.500;7.772;2022-11-20T03:21:51;4.50;99.90
13794;DHT22;31160;49.500;7.772;2022-11-20T03:24:18;4.60;99.90
13794;DHT22;31160;49.500;7.772;2022-11-20T03:26:45;4.70;99.90
13794;DHT22;31160;49.500;7.772;2022-11-20T03:29:11;4.70;99.90
13794;DHT22;31160;49.500;7.772;2022-11-20T03:31:39;4.60;99.90
13794;DHT22;31160;49.500;7.772;2022-11-20T03:34:08;4.60;99.90
13794;DHT22;31160;49.500;7.772;2022-11-20T03:36:41;4.60;99.90
13794;DHT22;31160;49.500;7.772;2022-11-20T03:39:08;4.60;99.90
13794;DHT22;31160;49.500;7.772;2022-11-20T03:41:37;4.60;99.90
13794;DHT22;31160;49.500;7.772;2022-11-20T03:44:06;4.70;99.90
13794;DHT22;31160;49.500;7.772;2022-11-20T03:46:33;4.80;99.90
13794;DHT22;31160;49.500;7.772;2022-11-20T03:49:00;4.80;99.90
13794;DHT22;31160;49.500;7.772;2022-11-20T03:51:28;4.90;99.90
13794;DHT22;31160;49.500;7.772;2022-11-20T03:53:58;4.90;99.90
13794;DHT22;31160;49.500;7.772;2022-11-20T03:56:28;4.90;99.90
13794;DHT22;31160;49.500;7.772;2022-11-20T03:58:55;5.00;99.90
13794;DHT22;31160;49.500;7.772;2022-11-20T04:01:25;5.10;99.90
13794;DHT22;31160;49.500;7.772;2022-11-20T04:03:54;5.10;99.90
13794;DHT22;31160;49.500;7.772;2022-11-20T04:06:24;5.10;99.90
13794;DHT22;31160;49.500;7.772;2022-11-20T04:08:51;5.10;99.90
13794;DHT22;31160;49.500;7.772;2022-11-20T04:11:28;5.10;99.90
13794;DHT22;31160;49.500;7.772;2022-11-20T04:13:57;5.20;99.90
13794;DHT22;31160;49.500;7.772;2022-11-20T04:16:25;5.20;99.90
13794;DHT22;31160;49.500;7.772;2022-11-20T04:18:57;5.20;99.90
13794;DHT22;31160;49.500;7.772;2022-11-20T04:21:25;5.20;99.90
13794;DHT22;31160;49.500;7.772;2022-11-20T04:23:53;5.20;99.90
13794;DHT22;31160;49.500;7.772;2022-11-20T04:26:21;5.20;99.90
13794;DHT22;31160;49.500;7.772;2022-11-20T04:28:48;5.30;99.90
13794;DHT22;31160;49.500;7.772;2022-11-20T04:31:18;5.30;99.90
13794;DHT22;31160;49.500;7.772;2022-11-20T04:33:45;5.40;99.90
13794;DHT22;31160;49.500;7.772;2022-11-20T04:36:15;5.40;99.90
13794;DHT22;31160;49.500;7.772;2022-11-20T04:38:42;5.50;99.90
13794;DHT22;31160;49.500;7.772;2022-11-20T04:41:15;5.50;99.90
13794;DHT22;31160;49.500;7.772;2022-11-20T04:43:47;5.50;99.90
13794;DHT22;31160;49.500;7.772;2022-11-20T04:46:18;5.50;99.90
13794;DHT22;31160;49.500;7.772;2022-11-20T04:48:46;5.60;99.90
13794;DHT22;31160;49.500;7.772;2022-11-20T04:51:13;5.60;99.90
13794;DHT22;31160;49.500;7.772;2022-11-20T04:53:40;5.60;99.90
13794;DHT22;31160;49.500;7.772;2022-11-20T04:56:09;5.60;99.90
13794;DHT22;31160;49.500;7.772;2022-11-20T04:58:37;5.50;99.90
13794;DHT22;31160;49.500;7.772;2022-11-20T05:01:10;5.40;99.90
13794;DHT22;31160;49.500;7.772;2022-11-20T05:03:42;5.50;99.90
13794;DHT22;31160;49.500;7.772;2022-11-20T05:06:12;5.50;99.90
13794;DHT22;31160;49.500;7.772;2022-11-20T05:08:39;5.50;99.90
13794;DHT22;31160;49.500;7.772;2022-11-20T05:11:09;5.60;99.90
13794;DHT22;31160;49.500;7.772;2022-11-20T05:13:36;5.70;99.90
13794;DHT22;31160;49.500;7.772;2022-11-20T05:16:05;5.70;99.90
13794;DHT22;31160;49.500;7.772;2022-11-20T05:18:34;5.80;99.90
13794;DHT22;31160;49.500;7.772;2022-11-20T05:21:01;5.80;99.90
13794;DHT22;31160;49.500;7.772;2022-11-20T05:23:29;5.90;99.90
13794;DHT22;31160;49.500;7.772;2022-11-20T05:25:57;5.90;99.90
13794;DHT22;31160;49.500;7.772;2022-11-20T05:28:26;6.00;99.90
13794;DHT22;31160;49.500;7.772;2022-11-20T05:30:53;6.10;99.90
13794;DHT22;31160;49.500;7.772;2022-11-20T05:33:20;6.10;99.90
13794;DHT22;31160;49.500;7.772;2022-11-20T05:35:48;6.10;99.90
13794;DHT22;31160;49.500;7.772;2022-11-20T05:38:15;6.20;99.90
13794;DHT22;31160;49.500;7.772;2022-11-20T05:40:41;6.20;99.90
13794;DHT22;31160;49.500;7.772;2022-11-20T05:43:08;6.30;99.90
13794;DHT22;31160;49.500;7.772;2022-11-20T05:45:35;6.30;99.90
13794;DHT22;31160;49.500;7.772;2022-11-20T05:48:02;6.40;99.90
13794;DHT22;31160;49.500;7.772;2022-11-20T05:50:29;6.40;99.90
13794;DHT22;31160;49.500;7.772;2022-11-20T05:52:58;6.40;99.90
13794;DHT22;31160;49.500;7.772;2022-11-20T05:55:26;6.50;99.90
13794;DHT22;31160;49.500;7.772;2022-11-20T05:57:54;6.50;99.90
13794;DHT22;31160;49.500;7.772;2022-11-20T06:00:21;6.50;99.90
13794;DHT22;31160;49.500;7.772;2022-11-20T06:02:48;6.60;99.90
13794;DHT22;31160;49.500;7.772;2022-11-20T06:05:15;6.60;99.90
13794;DHT22;31160;49.500;7.772;2022-11-20T06:07:42;6.60;99.90
13794;DHT22;31160;49.500;7.772;2022-11-20T06:10:09;6.50;99.90
13794;DHT22;31160;49.500;7.772;2022-11-20T06:12:36;6.40;99.90
13794;DHT22;31160;49.500;7.772;2022-11-20T06:15:04;6.50;99.90
13794;DHT22;31160;49.500;7.772;2022-11-20T06:17:31;6.50;99.90
13794;DHT22;31160;49.500;7.772;2022-11-20T06:19:57;6.50;99.90
13794;DHT22;31160;49.500;7.772;2022-11-20T06:22:24;6.50;99.90
13794;DHT22;31160;49.500;7.772;2022-11-20T06:24:51;6.50;99.90
13794;DHT22;31160;49.500;7.772;2022-11-20T06:27:17;6.40;99.90
13794;DHT22;31160;49.500;7.772;2022-11-20T06:29:44;6.50;99.90
13794;DHT22;31160;49.500;7.772;2022-11-20T06:32:11;6.40;99.90
13794;DHT22;31160;49.500;7.772;2022-11-20T06:34:38;6.50;99.90
13794;DHT22;31160;49.500;7.772;2022-11-20T06:37:05;6.50;99.90
13794;DHT22;31160;49.500;7.772;2022-11-20T06:39:32;6.50;99.90
13794;DHT22;31160;49.500;7.772;2022-11-20T06:41:58;6.50;99.90
13794;DHT22;31160;49.500;7.772;2022-11-20T06:44:25;6.60;99.90
13794;DHT22;31160;49.500;7.772;2022-11-20T06:46:52;6.60;99.90
13794;DHT22;31160;49.500;7.772;2022-11-20T06:49:19;6.70;99.90
13794;DHT22;31160;49.500;7.772;2022-11-20T06:51:46;6.70;99.90
13794;DHT22;31160;49.500;7.772;2022-11-20T06:54:13;6.70;99.90
13794;DHT22;31160;49.500;7.772;2022-11-20T06:56:40;6.70;99.90
13794;DHT22;31160;49.500;7.772;2022-11-20T06:59:07;6.70;99.90
13794;DHT22;31160;49.500;7.772;2022-11-20T07:01:34;6.70;99.90
13794;DHT22;31160;49.500;7.772;2022-11-20T07:04:01;6.70;99.90
13794;DHT22;31160;49.500;7.772;2022-11-20T07:06:29;6.80;99.90
13794;DHT22;31160;49.500;7.772;2022-11-20T07:08:56;6.80;99.90
13794;DHT22;31160;49.500;7.772;2022-11-20T07:11:23;6.80;99.90
13794;DHT22;31160;49.500;7.772;2022-11-20T07:13:50;6.70;99.90
13794;DHT22;31160;49.500;7.772;2022-11-20T07:16:17;6.80;99.90
13794;DHT22;31160;49.500;7.772;2022-11-20T07:18:44;6.80;99.90
13794;DHT22;31160;49.500;7.772;2022-11-20T07:21:16;6.80;99.90
13794;DHT22;31160;49.500;7.772;2022-11-20T07:23:43;6.90;99.90
13794;DHT22;31160;49.500;7.772;2022-11-20T07:26:10;6.90;99.90
13794;DHT22;31160;49.500;7.772;2022-11-20T07:28:37;6.90;99.90
13794;DHT22;31160;49.500;7.772;2022-11-20T07:31:05;6.80;99.90
13794;DHT22;31160;49.500;7.772;2022-11-20T07:33:33;6.80;99.90
13794;DHT22;31160;49.500;7.772;2022-11-20T07:36:00;6.80;99.90
13794;DHT22;31160;49.500;7.772;2022-11-20T07:38:27;6.90;99.90
13794;DHT22;31160;49.500;7.772;2022-11-20T07:40:54;6.90;99.90
13794;DHT22;31160;49.500;7.772;2022-11-20T07:43:22;6.90;99.90
13794;DHT22;31160;49.500;7.772;2022-11-20T07:45:48;6.90;99.90
13794;DHT22;31160;49.500;7.772;2022-11-20T07:48:15;7.10;99.90
13794;DHT22;31160;49.500;7.772;2022-11-20T07:50:42;7.10;99.90
13794;DHT22;31160;49.500;7.772;2022-11-20T07:53:09;7.00;99.90
13794;DHT22;31160;49.500;7.772;2022-11-20T07:55:35;7.10;99.90
13794;DHT22;31160;49.500;7.772;2022-11-20T07:58:02;7.00;99.90
13794;DHT22;31160;49.500;7.772;2022-11-20T08:00:29;7.10;99.90
13794;DHT22;31160;49.500;7.772;2022-11-20T08:02:56;7.20;99.90
13794;DHT22;31160;49.500;7.772;2022-11-20T08:05:22;7.20;99.90
13794;DHT22;31160;49.500;7.772;2022-11-20T08:07:49;7.20;99.90
13794;DHT22;31160;49.500;7.772;2022-11-20T08:10:16;7.20;99.90
13794;DHT22;31160;49.500;7.772;2022-11-20T08:12:51;7.30;99.90
13794;DHT22;31160;49.500;7.772;2022-11-20T08:15:38;7.30;99.90
13794;DHT22;31160;49.500;7.772;2022-11-20T08:18:10;7.40;99.90
13794;DHT22;31160;49.500;7.772;2022-11-20T08:21:02;7.50;99.90
13794;DHT22;31160;49.500;7.772;2022-11-20T08:23:29;7.50;99.90
13794;DHT22;31160;49.500;7.772;2022-11-20T08:25:56;7.50;99.90
13794;DHT22;31160;49.500;7.772;2022-11-20T08:28:23;7.40;99.90
13794;DHT22;31160;49.500;7.772;2022-11-20T08:30:50;7.40;99.90
13794;DHT22;31160;49.500;7.772;2022-11-20T08:33:17;7.40;99.90
13794;DHT22;31160;49.500;7.772;2022-11-20T08:35:45;7.50;99.90
13794;DHT22;31160;49.500;7.772;2022-11-20T08:38:11;7.60;99.90
13794;DHT22;31160;49.500;7.772;2022-11-20T08:40:38;7.50;99.90
13794;DHT22;31160;49.500;7.772;2022-11-20T08:43:05;7.60;99.90
13794;DHT22;31160;49.500;7.772;2022-11-20T08:45:32;7.60;99.90
13794;DHT22;31160;49.500;7.772;2022-11-20T08:48:02;7.60;99.90
13794;DHT22;31160;49.500;7.772;2022-11-20T08:50:30;7.60;99.90
13794;DHT22;31160;49.500;7.772;2022-11-20T08:53:05;7.70;99.90
13794;DHT22;31160;49.500;7.772;2022-11-20T08:55:32;7.80;99.90
13794;DHT22;31160;49.500;7.772;2022-11-20T08:58:03;7.80;99.90
13794;DHT22;31160;49.500;7.772;2022-11-20T09:00:30;7.80;99.90
13794;DHT22;31160;49.500;7.772;2022-11-20T09:02:56;7.60;99.90
13794;DHT22;31160;49.500;7.772;2022-11-20T09:05:25;7.70;99.90
13794;DHT22;31160;49.500;7.772;2022-11-20T09:07:51;7.80;99.90
13794;DHT22;31160;49.500;7.772;2022-11-20T09:10:18;7.80;99.90
13794;DHT22;31160;49.500;7.772;2022-11-20T09:12:51;7.80;99.90
13794;DHT22;31160;49.500;7.772;2022-11-20T09:15:19;7.70;99.90
13794;DHT22;31160;49.500;7.772;2022-11-20T09:17:58;7.60;99.90
13794;DHT22;31160;49.500;7.772;2022-11-20T09:20:27;7.80;99.90
13794;DHT22;31160;49.500;7.772;2022-11-20T09:22:55;7.80;99.90
13794;DHT22;31160;49.500;7.772;2022-11-20T09:25:22;7.80;99.90
13794;DHT22;31160;49.500;7.772;2022-11-20T09:27:55;7.70;99.90
13794;DHT22;31160;49.500;7.772;2022-11-20T09:30:22;7.70;99.90
13794;DHT22;31160;49.500;7.772;2022-11-20T09:32:49;7.70;99.90
13794;DHT22;31160;49.500;7.772;2022-11-20T09:35:15;7.70;99.90
13794;DHT22;31160;49.500;7.772;2022-11-20T09:37:42;7.70;99.90
13794;DHT22;31160;49.500;7.772;2022-11-20T09:40:27;7.70;99.90
13794;DHT22;31160;49.500;7.772;2022-11-20T09:43:14;7.70;99.90
13794;DHT22;31160;49.500;7.772;2022-11-20T09:46:07;7.80;99.90
13794;DHT22;31160;49.500;7.772;2022-11-20T09:51:37;7.80;99.90
13794;DHT22;31160;49.500;7.772;2022-11-20T09:54:29;7.80;99.90
13794;DHT22;31160;49.500;7.772;2022-11-20T09:57:03;7.90;99.90
13794;DHT22;31160;49.500;7.772;2022-11-20T09:59:51;7.90;99.90
13794;DHT22;31160;49.500;7.772;2022-11-20T10:07:41;7.90;99.90
13794;DHT22;31160;49.500;7.772;2022-11-20T10:10:19;7.90;99.90
13794;DHT22;31160;49.500;7.772;2022-11-20T10:23:45;9.10;99.90
13794;DHT22;31160;49.500;7.772;2022-11-20T10:26:30;9.20;99.90
13794;DHT22;31160;49.500;7.772;2022-11-20T10:29:14;8.80;99.90
13794;DHT22;31160;49.500;7.772;2022-11-20T10:31:45;9.00;99.90
13794;DHT22;31160;49.500;7.772;2022-11-20T10:34:28;9.20;99.90
13794;DHT22;31160;49.500;7.772;2022-11-20T10:37:08;9.50;99.90
13794;DHT22;31160;49.500;7.772;2022-11-20T10:40:05;10.00;99.90
13794;DHT22;31160;49.500;7.772;2022-11-20T10:42:51;10.20;99.90
13794;DHT22;31160;49.500;7.772;2022-11-20T10:47:55;9.70;99.90
13794;DHT22;31160;49.500;7.772;2022-11-20T10:50:23;9.80;99.90
13794;DHT22;31160;49.500;7.772;2022-11-20T10:52:58;9.80;99.90
13794;DHT22;31160;49.500;7.772;2022-11-20T10:55:47;10.10;99.90
13794;DHT22;31160;49.500;7.772;2022-11-20T11:01:18;10.20;99.90
13794;DHT22;31160;49.500;7.772;2022-11-20T11:03:45;9.70;99.90
13794;DHT22;31160;49.500;7.772;2022-11-20T11:06:42;9.80;99.90
13794;DHT22;31160;49.500;7.772;2022-11-20T11:09:17;9.90;99.90
13794;DHT22;31160;49.500;7.772;2022-11-20T11:11:47;10.10;99.90
13794;DHT22;31160;49.500;7.772;2022-11-20T11:14:15;10.20;99.90
13794;DHT22;31160;49.500;7.772;2022-11-20T11:16:53;10.50;99.90
13794;DHT22;31160;49.500;7.772;2022-11-20T11:19:20;10.30;99.90
13794;DHT22;31160;49.500;7.772;2022-11-20T11:21:50;10.10;99.90
13794;DHT22;31160;49.500;7.772;2022-11-20T11:27:13;10.00;99.90
13794;DHT22;31160;49.500;7.772;2022-11-20T11:29:43;10.00;99.90
13794;DHT22;31160;49.500;7.772;2022-11-20T11:32:20;10.00;99.90
13794;DHT22;31160;49.500;7.772;2022-11-20T11:35:05;9.90;99.90
13794;DHT22;31160;49.500;7.772;2022-11-20T11:37:37;9.70;99.90
13794;DHT22;31160;49.500;7.772;2022-11-20T11:40:06;9.80;99.90
13794;DHT22;31160;49.500;7.772;2022-11-20T11:42:57;9.90;99.90
13794;DHT22;31160;49.500;7.772;2022-11-20T11:45:24;9.80;99.90
13794;DHT22;31160;49.500;7.772;2022-11-20T11:47:54;9.70;99.90
13794;DHT22;31160;49.500;7.772;2022-11-20T11:50:26;9.50;99.90
13794;DHT22;31160;49.500;7.772;2022-11-20T11:55:51;9.60;99.90
13794;DHT22;31160;49.500;7.772;2022-11-20T11:58:44;9.40;99.90
13794;DHT22;31160;49.500;7.772;2022-11-20T12:04:29;9.30;99.90
13794;DHT22;31160;49.500;7.772;2022-11-20T12:07:22;9.40;99.90
13794;DHT22;31160;49.500;7.772;2022-11-20T12:10:21;9.40;99.90
13794;DHT22;31160;49.500;7.772;2022-11-20T12:15:51;9.20;99.90
13794;DHT22;31160;49.500;7.772;2022-11-20T12:18:20;9.30;99.90
13794;DHT22;31160;49.500;7.772;2022-11-20T12:33:17;9.30;99.90
13794;DHT22;31160;49.500;7.772;2022-11-20T12:48:01;10.10;99.90
13794;DHT22;31160;49.500;7.772;2022-11-20T13:01:40;9.50;99.90
13794;DHT22;31160;49.500;7.772;2022-11-20T13:04:37;9.40;99.90
13794;DHT22;31160;49.500;7.772;2022-11-20T13:07:08;9.30;99.90
13794;DHT22;31160;49.500;7.772;2022-11-20T13:09:43;9.20;99.90
13794;DHT22;31160;49.500;7.772;2022-11-20T13:12:36;9.20;99.90
13794;DHT22;31160;49.500;7.772;2022-11-20T13:15:30;9.40;99.90
13794;DHT22;31160;49.500;7.772;2022-11-20T13:18:00;9.20;99.90
13794;DHT22;31160;49.500;7.772;2022-11-20T13:20:29;9.30;99.90
13794;DHT22;31160;49.500;7.772;2022-11-20T13:22:57;9.20;99.90
13794;DHT22;31160;49.500;7.772;2022-11-20T13:25:32;9.30;99.90
13794;DHT22;31160;49.500;7.772;2022-11-20T13:28:03;9.40;99.90
13794;DHT22;31160;49.500;7.772;2022-11-20T13:30:30;9.60;99.90
13794;DHT22;31160;49.500;7.772;2022-11-20T13:33:04;9.50;99.90
13794;DHT22;31160;49.500;7.772;2022-11-20T13:35:35;9.40;99.90
13794;DHT22;31160;49.500;7.772;2022-11-20T13:38:10;9.20;99.90
13794;DHT22;31160;49.500;7.772;2022-11-20T13:40:39;9.20;99.90
13794;DHT22;31160;49.500;7.772;2022-11-20T13:43:38;9.10;99.90
13794;DHT22;31160;49.500;7.772;2022-11-20T13:46:08;9.10;99.90
13794;DHT22;31160;49.500;7.772;2022-11-20T13:48:40;9.10;99.90
13794;DHT22;31160;49.500;7.772;2022-11-20T14:00:17;9.20;99.90
13794;DHT22;31160;49.500;7.772;2022-11-20T14:03:09;9.20;99.90
13794;DHT22;31160;49.500;7.772;2022-11-20T14:05:46;9.20;99.90
13794;DHT22;31160;49.500;7.772;2022-11-20T14:08:25;9.10;99.90
13794;DHT22;31160;49.500;7.772;2022-11-20T14:11:18;9.10;99.90
13794;DHT22;31160;49.500;7.772;2022-11-20T14:13:59;9.20;99.90
13794;DHT22;31160;49.500;7.772;2022-11-20T14:16:29;9.20;99.90
13794;DHT22;31160;49.500;7.772;2022-11-20T14:18:58;8.90;99.90
13794;DHT22;31160;49.500;7.772;2022-11-20T14:21:41;9.00;99.90
13794;DHT22;31160;49.500;7.772;2022-11-20T14:24:11;9.00;99.90
13794;DHT22;31160;49.500;7.772;2022-11-20T14:26:42;8.90;99.90
13794;DHT22;31160;49.500;7.772;2022-11-20T14:29:14;8.90;99.90
13794;DHT22;31160;49.500;7.772;2022-11-20T14:31:44;8.90;99.90
13794;DHT22;31160;49.500;7.772;2022-11-20T14:34:26;8.70;99.90
13794;DHT22;31160;49.500;7.772;2022-11-20T14:36:58;8.80;99.90
13794;DHT22;31160;49.500;7.772;2022-11-20T14:39:35;8.80;99.90
13794;DHT22;31160;49.500;7.772;2022-11-20T14:42:16;8.60;99.90
13794;DHT22;31160;49.500;7.772;2022-11-20T14:44:44;8.50;99.90
13794;DHT22;31160;49.500;7.772;2022-11-20T14:47:12;8.50;99.90
13794;DHT22;31160;49.500;7.772;2022-11-20T14:49:40;8.30;99.90
13794;DHT22;31160;49.500;7.772;2022-11-20T14:52:22;8.40;99.90
13794;DHT22;31160;49.500;7.772;2022-11-20T14:54:51;8.50;99.90
13794;DHT22;31160;49.500;7.772;2022-11-20T14:57:22;8.40;99.90
13794;DHT22;31160;49.500;7.772;2022-11-20T14:59:49;8.50;99.90
13794;DHT22;31160;49.500;7.772;2022-11-20T15:02:16;8.40;99.90
13794;DHT22;31160;49.500;7.772;2022-11-20T15:04:49;8.50;99.90
13794;DHT22;31160;49.500;7.772;2022-11-20T15:07:28;8.40;99.90
13794;DHT22;31160;49.500;7.772;2022-11-20T15:10:08;8.50;99.90
13794;DHT22;31160;49.500;7.772;2022-11-20T15:12:41;8.50;99.90
13794;DHT22;31160;49.500;7.772;2022-11-20T15:15:15;8.30;99.90
13794;DHT22;31160;49.500;7.772;2022-11-20T15:17:43;8.30;99.90
13794;DHT22;31160;49.500;7.772;2022-11-20T15:20:13;8.30;99.90
13794;DHT22;31160;49.500;7.772;2022-11-20T15:22:41;8.20;99.90
13794;DHT22;31160;49.500;7.772;2022-11-20T15:25:16;8.30;99.90
13794;DHT22;31160;49.500;7.772;2022-11-20T15:27:44;8.20;99.90
13794;DHT22;31160;49.500;7.772;2022-11-20T15:30:20;8.20;99.90
13794;DHT22;31160;49.500;7.772;2022-11-20T15:32:47;8.30;99.90
13794;DHT22;31160;49.500;7.772;2022-11-20T15:35:15;8.30;99.90
13794;DHT22;31160;49.500;7.772;2022-11-20T15:37:42;8.10;99.90
13794;DHT22;31160;49.500;7.772;2022-11-20T15:40:09;8.10;99.90
13794;DHT22;31160;49.500;7.772;2022-11-20T15:42:36;8.10;99.90
13794;DHT22;31160;49.500;7.772;2022-11-20T15:45:03;8.20;99.90
13794;DHT22;31160;49.500;7.772;2022-11-20T15:47:33;8.10;99.90
13794;DHT22;31160;49.500;7.772;2022-11-20T15:50:00;8.20;99.90
13794;DHT22;31160;49.500;7.772;2022-11-20T15:52:27;8.20;99.90
13794;DHT22;31160;49.500;7.772;2022-11-20T15:55:09;8.30;99.90
13794;DHT22;31160;49.500;7.772;2022-11-20T15:57:36;8.20;99.90
13794;DHT22;31160;49.500;7.772;2022-11-20T16:00:03;8.20;99.90
13794;DHT22;31160;49.500;7.772;2022-11-20T16:02:36;8.20;99.90
13794;DHT22;31160;49.500;7.772;2022-11-20T16:05:03;8.20;99.90
13794;DHT22;31160;49.500;7.772;2022-11-20T16:07:30;8.10;99.90
13794;DHT22;31160;49.500;7.772;2022-11-20T16:09:57;8.10;99.90
13794;DHT22;31160;49.500;7.772;2022-11-20T16:12:23;8.10;99.90
13794;DHT22;31160;49.500;7.772;2022-11-20T16:15:29;8.20;99.90
13794;DHT22;31160;49.500;7.772;2022-11-20T16:18:18;8.20;99.90
13794;DHT22;31160;49.500;7.772;2022-11-20T16:20:48;8.10;99.90
13794;DHT22;31160;49.500;7.772;2022-11-20T16:23:15;7.90;99.90
13794;DHT22;31160;49.500;7.772;2022-11-20T16:25:43;8.00;99.90
13794;DHT22;31160;49.500;7.772;2022-11-20T16:28:10;8.10;99.90
13794;DHT22;31160;49.500;7.772;2022-11-20T16:30:44;8.00;99.90
13794;DHT22;31160;49.500;7.772;2022-11-20T16:33:13;7.90;99.90
13794;DHT22;31160;49.500;7.772;2022-11-20T16:35:39;8.00;99.90
13794;DHT22;31160;49.500;7.772;2022-11-20T16:38:06;8.00;99.90
13794;DHT22;31160;49.500;7.772;2022-11-20T16:40:33;7.90;99.90
13794;DHT22;31160;49.500;7.772;2022-11-20T16:43:09;7.90;99.90
13794;DHT22;31160;49.500;7.772;2022-11-20T16:45:43;8.00;99.90
13794;DHT22;31160;49.500;7.772;2022-11-20T16:48:15;7.80;99.90
13794;DHT22;31160;49.500;7.772;2022-11-20T16:50:50;7.80;99.90
13794;DHT22;31160;49.500;7.772;2022-11-20T16:53:19;7.60;99.90
13794;DHT22;31160;49.500;7.772;2022-11-20T16:55:46;7.70;99.90
13794;DHT22;31160;49.500;7.772;2022-11-20T16:58:14;7.70;99.90
13794;DHT22;31160;49.500;7.772;2022-11-20T17:00:41;7.70;99.90
13794;DHT22;31160;49.500;7.772;2022-11-20T17:03:15;7.50;99.90
13794;DHT22;31160;49.500;7.772;2022-11-20T17:05:43;7.50;99.90
13794;DHT22;31160;49.500;7.772;2022-11-20T17:08:10;7.30;99.90
13794;DHT22;31160;49.500;7.772;2022-11-20T17:10:36;7.50;99.90
13794;DHT22;31160;49.500;7.772;2022-11-20T17:13:03;7.20;99.90
13794;DHT22;31160;49.500;7.772;2022-11-20T17:15:30;7.20;99.90
13794;DHT22;31160;49.500;7.772;2022-11-20T17:17:57;7.20;99.90
13794;DHT22;31160;49.500;7.772;2022-11-20T17:20:23;7.20;99.90
13794;DHT22;31160;49.500;7.772;2022-11-20T17:22:50;7.20;99.90
13794;DHT22;31160;49.500;7.772;2022-11-20T17:25:17;7.30;99.90
13794;DHT22;31160;49.500;7.772;2022-11-20T17:27:43;7.30;99.90
13794;DHT22;31160;49.500;7.772;2022-11-20T17:30:10;7.30;99.90
13794;DHT22;31160;49.500;7.772;2022-11-20T17:32:37;7.00;99.90